sensor_id;sensor_type;location;lat;lon;timestamp;P1;durP1;ratioP1;P2;durP2;ratioP2
54699;SDS011;40599;53.132;6.090;2023-08-21T00:00:09;6.15;;;2.47;;
54699;SDS011;40599;53.132;6.090;2023-08-21T00:02:37;8.33;;;3.40;;
54699;SDS011;40599;53.132;6.090;2023-08-21T00:05:03;6.38;;;3.03;;
54699;SDS011;40599;53.132;6.090;2023-08-21T00:07:30;8.25;;;2.50;;
54699;SDS011;40599;53.132;6.090;2023-08-21T00:09:56;5.65;;;2.20;;
54699;SDS011;40599;53.132;6.090;2023-08-21T00:12:22;4.75;;;2.17;;
54699;SDS011;40599;53.132;6.090;2023-08-21T00:14:48;6.45;;;2.78;;
54699;SDS011;40599;53.132;6.090;2023-08-21T00:17:14;3.15;;;1.88;;
54699;SDS011;40599;53.132;6.090;2023-08-21T00:19:40;5.43;;;2.13;;
54699;SDS011;40599;53.132;6.090;2023-08-21T00:22:07;4.60;;;2.38;;
54699;SDS011;40599;53.132;6.090;2023-08-21T00:24:33;7.57;;;3.40;;
54699;SDS011;40599;53.132;6.090;2023-08-21T00:26:59;5.20;;;2.33;;
54699;SDS011;40599;53.132;6.090;2023-08-21T00:29:25;5.35;;;2.70;;
54699;SDS011;40599;53.132;6.090;2023-08-21T00:31:51;14.13;;;3.58;;
54699;SDS011;40599;53.132;6.090;2023-08-21T00:34:17;6.85;;;2.80;;
54699;SDS011;40599;53.132;6.090;2023-08-21T00:36:43;6.10;;;2.30;;
54699;SDS011;40599;53.132;6.090;2023-08-21T00:39:10;6.63;;;2.40;;
54699;SDS011;40599;53.132;6.090;2023-08-21T00:41:36;5.13;;;2.15;;
54699;SDS011;40599;53.132;6.090;2023-08-21T00:44:02;6.22;;;2.58;;
54699;SDS011;40599;53.132;6.090;2023-08-21T00:46:29;8.07;;;3.03;;
54699;SDS011;40599;53.132;6.090;2023-08-21T00:48:55;4.78;;;1.98;;
54699;SDS011;40599;53.132;6.090;2023-08-21T00:51:21;4.50;;;2.10;;
54699;SDS011;40599;53.132;6.090;2023-08-21T00:53:48;8.75;;;2.45;;
54699;SDS011;40599;53.132;6.090;2023-08-21T00:56:14;2.80;;;1.95;;
54699;SDS011;40599;53.132;6.090;2023-08-21T00:58:40;4.32;;;1.83;;
54699;SDS011;40599;53.132;6.090;2023-08-21T01:03:34;6.17;;;2.30;;
54699;SDS011;40599;53.132;6.090;2023-08-21T01:06:00;3.95;;;2.08;;
54699;SDS011;40599;53.132;6.090;2023-08-21T01:11:26;4.27;;;2.50;;
54699;SDS011;40599;53.132;6.090;2023-08-21T01:14:00;6.57;;;3.20;;
54699;SDS011;40599;53.132;6.090;2023-08-21T01:16:29;4.67;;;2.30;;
54699;SDS011;40599;53.132;6.090;2023-08-21T01:18:56;4.40;;;2.23;;
54699;SDS011;40599;53.132;6.090;2023-08-21T01:21:23;5.55;;;2.22;;
54699;SDS011;40599;53.132;6.090;2023-08-21T01:23:49;4.78;;;1.95;;
54699;SDS011;40599;53.132;6.090;2023-08-21T01:26:15;4.53;;;2.65;;
54699;SDS011;40599;53.132;6.090;2023-08-21T01:28:41;10.45;;;2.83;;
54699;SDS011;40599;53.132;6.090;2023-08-21T01:31:15;4.57;;;2.42;;
54699;SDS011;40599;53.132;6.090;2023-08-21T01:33:50;5.60;;;2.60;;
54699;SDS011;40599;53.132;6.090;2023-08-21T01:36:17;5.63;;;2.30;;
54699;SDS011;40599;53.132;6.090;2023-08-21T01:38:43;5.53;;;2.50;;
54699;SDS011;40599;53.132;6.090;2023-08-21T01:41:10;6.70;;;2.40;;
54699;SDS011;40599;53.132;6.090;2023-08-21T01:43:36;4.75;;;2.47;;
54699;SDS011;40599;53.132;6.090;2023-08-21T01:46:02;8.52;;;2.55;;
54699;SDS011;40599;53.132;6.090;2023-08-21T01:48:28;8.18;;;2.83;;
54699;SDS011;40599;53.132;6.090;2023-08-21T01:50:55;5.85;;;2.30;;
54699;SDS011;40599;53.132;6.090;2023-08-21T01:53:21;3.40;;;1.85;;
54699;SDS011;40599;53.132;6.090;2023-08-21T01:55:47;5.53;;;1.90;;
54699;SDS011;40599;53.132;6.090;2023-08-21T01:58:13;5.15;;;1.85;;
54699;SDS011;40599;53.132;6.090;2023-08-21T02:00:39;3.85;;;1.65;;
54699;SDS011;40599;53.132;6.090;2023-08-21T02:03:05;3.55;;;1.80;;
54699;SDS011;40599;53.132;6.090;2023-08-21T02:05:36;5.03;;;1.80;;
54699;SDS011;40599;53.132;6.090;2023-08-21T02:08:03;7.53;;;2.57;;
54699;SDS011;40599;53.132;6.090;2023-08-21T02:10:29;6.63;;;3.13;;
54699;SDS011;40599;53.132;6.090;2023-08-21T02:12:55;3.35;;;1.70;;
54699;SDS011;40599;53.132;6.090;2023-08-21T02:15:21;7.50;;;2.53;;
54699;SDS011;40599;53.132;6.090;2023-08-21T02:17:48;3.05;;;1.90;;
54699;SDS011;40599;53.132;6.090;2023-08-21T02:20:14;10.68;;;3.00;;
54699;SDS011;40599;53.132;6.090;2023-08-21T02:22:43;4.07;;;2.00;;
54699;SDS011;40599;53.132;6.090;2023-08-21T02:25:15;4.80;;;1.87;;
54699;SDS011;40599;53.132;6.090;2023-08-21T02:27:47;4.60;;;2.00;;
54699;SDS011;40599;53.132;6.090;2023-08-21T02:33:26;7.93;;;2.08;;
54699;SDS011;40599;53.132;6.090;2023-08-21T02:35:53;4.55;;;1.60;;
54699;SDS011;40599;53.132;6.090;2023-08-21T02:38:19;5.95;;;1.85;;
54699;SDS011;40599;53.132;6.090;2023-08-21T02:40:45;6.50;;;1.90;;
54699;SDS011;40599;53.132;6.090;2023-08-21T02:43:12;5.43;;;2.13;;
54699;SDS011;40599;53.132;6.090;2023-08-21T02:45:38;5.10;;;1.58;;
54699;SDS011;40599;53.132;6.090;2023-08-21T02:48:05;3.13;;;1.80;;
54699;SDS011;40599;53.132;6.090;2023-08-21T02:50:31;3.67;;;1.80;;
54699;SDS011;40599;53.132;6.090;2023-08-21T02:52:57;6.30;;;1.58;;
54699;SDS011;40599;53.132;6.090;2023-08-21T02:55:33;9.55;;;2.92;;
54699;SDS011;40599;53.132;6.090;2023-08-21T02:57:59;5.22;;;2.08;;
54699;SDS011;40599;53.132;6.090;2023-08-21T03:00:25;6.78;;;2.67;;
54699;SDS011;40599;53.132;6.090;2023-08-21T03:02:51;5.95;;;2.55;;
54699;SDS011;40599;53.132;6.090;2023-08-21T03:05:17;5.05;;;2.17;;
54699;SDS011;40599;53.132;6.090;2023-08-21T03:07:43;4.47;;;2.60;;
54699;SDS011;40599;53.132;6.090;2023-08-21T03:10:10;6.60;;;2.72;;
54699;SDS011;40599;53.132;6.090;2023-08-21T03:12:36;5.90;;;2.42;;
54699;SDS011;40599;53.132;6.090;2023-08-21T03:15:05;9.00;;;3.40;;
54699;SDS011;40599;53.132;6.090;2023-08-21T03:17:31;9.07;;;4.10;;
54699;SDS011;40599;53.132;6.090;2023-08-21T03:19:57;7.70;;;3.78;;
54699;SDS011;40599;53.132;6.090;2023-08-21T03:22:23;9.32;;;3.70;;
54699;SDS011;40599;53.132;6.090;2023-08-21T03:24:50;7.82;;;3.08;;
54699;SDS011;40599;53.132;6.090;2023-08-21T03:27:16;5.68;;;3.20;;
54699;SDS011;40599;53.132;6.090;2023-08-21T03:29:42;8.75;;;3.40;;
54699;SDS011;40599;53.132;6.090;2023-08-21T03:32:17;10.52;;;4.65;;
54699;SDS011;40599;53.132;6.090;2023-08-21T03:34:43;9.85;;;4.47;;
54699;SDS011;40599;53.132;6.090;2023-08-21T03:37:09;8.00;;;4.88;;
54699;SDS011;40599;53.132;6.090;2023-08-21T03:39:36;9.77;;;4.90;;
54699;SDS011;40599;53.132;6.090;2023-08-21T03:42:02;9.80;;;4.88;;
54699;SDS011;40599;53.132;6.090;2023-08-21T03:44:28;11.10;;;6.13;;
54699;SDS011;40599;53.132;6.090;2023-08-21T03:46:55;9.88;;;5.40;;
54699;SDS011;40599;53.132;6.090;2023-08-21T03:49:24;9.00;;;5.30;;
54699;SDS011;40599;53.132;6.090;2023-08-21T03:51:50;8.68;;;5.43;;
54699;SDS011;40599;53.132;6.090;2023-08-21T03:54:19;7.03;;;4.18;;
54699;SDS011;40599;53.132;6.090;2023-08-21T03:56:46;9.75;;;4.03;;
54699;SDS011;40599;53.132;6.090;2023-08-21T03:59:12;7.07;;;4.60;;
54699;SDS011;40599;53.132;6.090;2023-08-21T04:01:38;11.90;;;4.78;;
54699;SDS011;40599;53.132;6.090;2023-08-21T04:04:04;8.85;;;4.90;;
54699;SDS011;40599;53.132;6.090;2023-08-21T04:06:30;4.40;;;3.65;;
54699;SDS011;40599;53.132;6.090;2023-08-21T04:08:56;6.75;;;3.78;;
54699;SDS011;40599;53.132;6.090;2023-08-21T04:11:23;7.40;;;3.63;;
54699;SDS011;40599;53.132;6.090;2023-08-21T04:13:49;5.97;;;3.20;;
54699;SDS011;40599;53.132;6.090;2023-08-21T04:16:15;6.47;;;3.13;;
54699;SDS011;40599;53.132;6.090;2023-08-21T04:18:43;5.85;;;3.30;;
54699;SDS011;40599;53.132;6.090;2023-08-21T04:21:09;6.47;;;3.40;;
54699;SDS011;40599;53.132;6.090;2023-08-21T04:23:35;13.52;;;5.45;;
54699;SDS011;40599;53.132;6.090;2023-08-21T04:26:02;8.15;;;4.57;;
54699;SDS011;40599;53.132;6.090;2023-08-21T04:28:31;7.18;;;4.05;;
54699;SDS011;40599;53.132;6.090;2023-08-21T04:30:58;13.25;;;5.55;;
54699;SDS011;40599;53.132;6.090;2023-08-21T04:33:25;8.35;;;4.45;;
54699;SDS011;40599;53.132;6.090;2023-08-21T04:35:51;7.63;;;4.10;;
54699;SDS011;40599;53.132;6.090;2023-08-21T04:38:17;6.88;;;4.25;;
54699;SDS011;40599;53.132;6.090;2023-08-21T04:40:43;6.13;;;4.07;;
54699;SDS011;40599;53.132;6.090;2023-08-21T04:43:10;9.15;;;4.53;;
54699;SDS011;40599;53.132;6.090;2023-08-21T04:45:36;16.10;;;4.10;;
54699;SDS011;40599;53.132;6.090;2023-08-21T04:48:04;7.32;;;4.20;;
54699;SDS011;40599;53.132;6.090;2023-08-21T04:50:30;10.43;;;3.97;;
54699;SDS011;40599;53.132;6.090;2023-08-21T04:52:56;10.02;;;4.43;;
54699;SDS011;40599;53.132;6.090;2023-08-21T04:55:22;10.43;;;4.93;;
54699;SDS011;40599;53.132;6.090;2023-08-21T04:57:49;9.05;;;4.18;;
54699;SDS011;40599;53.132;6.090;2023-08-21T05:00:15;8.93;;;3.75;;
54699;SDS011;40599;53.132;6.090;2023-08-21T05:02:41;14.02;;;5.95;;
54699;SDS011;40599;53.132;6.090;2023-08-21T05:05:07;10.57;;;5.50;;
54699;SDS011;40599;53.132;6.090;2023-08-21T05:07:34;11.05;;;5.15;;
54699;SDS011;40599;53.132;6.090;2023-08-21T05:10:00;11.13;;;5.20;;
54699;SDS011;40599;53.132;6.090;2023-08-21T05:12:27;10.48;;;5.00;;
54699;SDS011;40599;53.132;6.090;2023-08-21T05:14:53;6.50;;;4.15;;
54699;SDS011;40599;53.132;6.090;2023-08-21T05:17:19;7.32;;;3.75;;
54699;SDS011;40599;53.132;6.090;2023-08-21T05:19:46;7.53;;;4.30;;
54699;SDS011;40599;53.132;6.090;2023-08-21T05:22:12;5.13;;;3.80;;
54699;SDS011;40599;53.132;6.090;2023-08-21T05:24:38;7.95;;;4.00;;
54699;SDS011;40599;53.132;6.090;2023-08-21T05:27:04;8.20;;;4.55;;
54699;SDS011;40599;53.132;6.090;2023-08-21T05:29:30;8.65;;;5.47;;
54699;SDS011;40599;53.132;6.090;2023-08-21T05:31:58;12.00;;;6.55;;
54699;SDS011;40599;53.132;6.090;2023-08-21T05:34:24;10.43;;;6.10;;
54699;SDS011;40599;53.132;6.090;2023-08-21T05:36:50;9.95;;;4.75;;
54699;SDS011;40599;53.132;6.090;2023-08-21T05:39:19;12.52;;;4.82;;
54699;SDS011;40599;53.132;6.090;2023-08-21T05:41:45;8.23;;;4.78;;
54699;SDS011;40599;53.132;6.090;2023-08-21T05:44:12;12.95;;;6.03;;
54699;SDS011;40599;53.132;6.090;2023-08-21T05:46:38;5.85;;;4.40;;
54699;SDS011;40599;53.132;6.090;2023-08-21T05:49:04;10.07;;;5.00;;
54699;SDS011;40599;53.132;6.090;2023-08-21T05:51:30;8.65;;;5.07;;
54699;SDS011;40599;53.132;6.090;2023-08-21T05:53:57;10.93;;;5.00;;
54699;SDS011;40599;53.132;6.090;2023-08-21T05:56:23;6.90;;;4.75;;
54699;SDS011;40599;53.132;6.090;2023-08-21T05:58:49;10.40;;;5.55;;
54699;SDS011;40599;53.132;6.090;2023-08-21T06:01:15;8.60;;;4.85;;
54699;SDS011;40599;53.132;6.090;2023-08-21T06:03:42;11.38;;;5.65;;
54699;SDS011;40599;53.132;6.090;2023-08-21T06:06:08;12.53;;;5.67;;
54699;SDS011;40599;53.132;6.090;2023-08-21T06:08:35;11.77;;;5.85;;
54699;SDS011;40599;53.132;6.090;2023-08-21T06:11:01;11.20;;;5.90;;
54699;SDS011;40599;53.132;6.090;2023-08-21T06:13:27;11.55;;;5.93;;
54699;SDS011;40599;53.132;6.090;2023-08-21T06:15:54;12.93;;;5.05;;
54699;SDS011;40599;53.132;6.090;2023-08-21T06:18:20;11.18;;;5.47;;
54699;SDS011;40599;53.132;6.090;2023-08-21T06:20:46;9.95;;;4.72;;
54699;SDS011;40599;53.132;6.090;2023-08-21T06:23:12;11.10;;;4.90;;
54699;SDS011;40599;53.132;6.090;2023-08-21T06:25:38;12.88;;;4.95;;
54699;SDS011;40599;53.132;6.090;2023-08-21T06:28:05;10.23;;;4.35;;
54699;SDS011;40599;53.132;6.090;2023-08-21T06:30:31;11.95;;;4.38;;
54699;SDS011;40599;53.132;6.090;2023-08-21T06:32:57;10.35;;;3.83;;
54699;SDS011;40599;53.132;6.090;2023-08-21T06:35:23;13.07;;;3.92;;
54699;SDS011;40599;53.132;6.090;2023-08-21T06:37:49;32.72;;;6.13;;
54699;SDS011;40599;53.132;6.090;2023-08-21T06:40:16;13.80;;;4.75;;
54699;SDS011;40599;53.132;6.090;2023-08-21T06:42:42;10.57;;;3.60;;
54699;SDS011;40599;53.132;6.090;2023-08-21T07:13:58;8.97;;;2.90;;
54699;SDS011;40599;53.132;6.090;2023-08-21T07:16:29;11.70;;;2.67;;
54699;SDS011;40599;53.132;6.090;2023-08-21T07:19:04;10.30;;;2.33;;
54699;SDS011;40599;53.132;6.090;2023-08-21T07:21:30;8.15;;;2.45;;
54699;SDS011;40599;53.132;6.090;2023-08-21T07:23:59;8.77;;;2.20;;
54699;SDS011;40599;53.132;6.090;2023-08-21T07:26:25;5.57;;;2.05;;
54699;SDS011;40599;53.132;6.090;2023-08-21T07:28:51;7.07;;;2.25;;
54699;SDS011;40599;53.132;6.090;2023-08-21T07:31:18;10.07;;;2.53;;
54699;SDS011;40599;53.132;6.090;2023-08-21T07:33:44;8.25;;;2.15;;
54699;SDS011;40599;53.132;6.090;2023-08-21T07:36:10;4.88;;;1.75;;
54699;SDS011;40599;53.132;6.090;2023-08-21T07:38:42;11.80;;;2.20;;
54699;SDS011;40599;53.132;6.090;2023-08-21T07:41:08;4.57;;;1.70;;
54699;SDS011;40599;53.132;6.090;2023-08-21T07:43:35;9.27;;;2.53;;
54699;SDS011;40599;53.132;6.090;2023-08-21T07:48:28;5.97;;;1.60;;
54699;SDS011;40599;53.132;6.090;2023-08-21T07:50:54;7.95;;;1.73;;
54699;SDS011;40599;53.132;6.090;2023-08-21T07:53:20;8.60;;;1.95;;
54699;SDS011;40599;53.132;6.090;2023-08-21T07:55:46;9.10;;;1.92;;
54699;SDS011;40599;53.132;6.090;2023-08-21T07:58:12;7.05;;;1.65;;
54699;SDS011;40599;53.132;6.090;2023-08-21T08:00:39;14.10;;;2.65;;
54699;SDS011;40599;53.132;6.090;2023-08-21T08:09:50;7.50;;;1.60;;
54699;SDS011;40599;53.132;6.090;2023-08-21T08:12:17;8.27;;;1.75;;
54699;SDS011;40599;53.132;6.090;2023-08-21T08:14:43;9.90;;;1.55;;
54699;SDS011;40599;53.132;6.090;2023-08-21T08:17:09;12.65;;;2.60;;
54699;SDS011;40599;53.132;6.090;2023-08-21T08:19:36;8.02;;;1.70;;
54699;SDS011;40599;53.132;6.090;2023-08-21T08:22:02;8.60;;;2.13;;
54699;SDS011;40599;53.132;6.090;2023-08-21T08:24:28;11.20;;;2.03;;
54699;SDS011;40599;53.132;6.090;2023-08-21T08:26:55;8.90;;;2.03;;
54699;SDS011;40599;53.132;6.090;2023-08-21T08:29:21;9.38;;;2.67;;
54699;SDS011;40599;53.132;6.090;2023-08-21T08:31:47;9.20;;;1.55;;
54699;SDS011;40599;53.132;6.090;2023-08-21T08:34:13;6.13;;;1.40;;
54699;SDS011;40599;53.132;6.090;2023-08-21T08:36:39;6.55;;;1.98;;
54699;SDS011;40599;53.132;6.090;2023-08-21T08:39:06;10.17;;;1.90;;
54699;SDS011;40599;53.132;6.090;2023-08-21T08:41:33;6.38;;;1.73;;
54699;SDS011;40599;53.132;6.090;2023-08-21T08:44:03;9.57;;;2.00;;
54699;SDS011;40599;53.132;6.090;2023-08-21T08:46:30;8.07;;;2.30;;
54699;SDS011;40599;53.132;6.090;2023-08-21T08:48:56;7.03;;;2.05;;
54699;SDS011;40599;53.132;6.090;2023-08-21T08:51:24;5.72;;;2.03;;
54699;SDS011;40599;53.132;6.090;2023-08-21T08:53:50;6.00;;;1.83;;
54699;SDS011;40599;53.132;6.090;2023-08-21T08:56:16;22.33;;;3.28;;
54699;SDS011;40599;53.132;6.090;2023-08-21T08:58:43;11.93;;;2.08;;
54699;SDS011;40599;53.132;6.090;2023-08-21T09:01:09;10.27;;;1.88;;
54699;SDS011;40599;53.132;6.090;2023-08-21T09:03:36;9.90;;;2.90;;
54699;SDS011;40599;53.132;6.090;2023-08-21T09:06:05;6.97;;;1.90;;
54699;SDS011;40599;53.132;6.090;2023-08-21T09:08:31;6.93;;;1.97;;
54699;SDS011;40599;53.132;6.090;2023-08-21T09:11:00;8.10;;;1.70;;
54699;SDS011;40599;53.132;6.090;2023-08-21T09:13:27;10.33;;;3.00;;
54699;SDS011;40599;53.132;6.090;2023-08-21T09:15:53;8.38;;;1.95;;
54699;SDS011;40599;53.132;6.090;2023-08-21T09:18:23;10.20;;;2.70;;
54699;SDS011;40599;53.132;6.090;2023-08-21T09:20:49;8.48;;;2.63;;
54699;SDS011;40599;53.132;6.090;2023-08-21T09:23:16;8.07;;;2.50;;
54699;SDS011;40599;53.132;6.090;2023-08-21T09:25:43;9.97;;;2.17;;
54699;SDS011;40599;53.132;6.090;2023-08-21T09:28:11;7.07;;;2.30;;
54699;SDS011;40599;53.132;6.090;2023-08-21T09:30:47;9.98;;;2.05;;
54699;SDS011;40599;53.132;6.090;2023-08-21T09:33:19;8.53;;;2.33;;
54699;SDS011;40599;53.132;6.090;2023-08-21T09:35:46;9.93;;;2.40;;
54699;SDS011;40599;53.132;6.090;2023-08-21T09:38:12;6.63;;;2.30;;
54699;SDS011;40599;53.132;6.090;2023-08-21T09:40:43;10.40;;;2.30;;
54699;SDS011;40599;53.132;6.090;2023-08-21T09:43:11;10.17;;;2.87;;
54699;SDS011;40599;53.132;6.090;2023-08-21T09:45:37;7.40;;;2.13;;
54699;SDS011;40599;53.132;6.090;2023-08-21T09:48:04;7.47;;;2.33;;
54699;SDS011;40599;53.132;6.090;2023-08-21T09:50:30;7.57;;;2.40;;
54699;SDS011;40599;53.132;6.090;2023-08-21T09:55:23;11.80;;;1.83;;
54699;SDS011;40599;53.132;6.090;2023-08-21T09:57:51;8.90;;;2.30;;
54699;SDS011;40599;53.132;6.090;2023-08-21T10:00:24;11.77;;;2.30;;
54699;SDS011;40599;53.132;6.090;2023-08-21T10:02:50;8.00;;;2.33;;
54699;SDS011;40599;53.132;6.090;2023-08-21T10:05:17;9.83;;;2.20;;
54699;SDS011;40599;53.132;6.090;2023-08-21T10:07:44;8.40;;;2.13;;
54699;SDS011;40599;53.132;6.090;2023-08-21T10:10:13;7.03;;;1.70;;
54699;SDS011;40599;53.132;6.090;2023-08-21T10:15:06;8.13;;;2.00;;
54699;SDS011;40599;53.132;6.090;2023-08-21T10:17:35;6.20;;;1.60;;
54699;SDS011;40599;53.132;6.090;2023-08-21T10:20:05;7.47;;;2.00;;
54699;SDS011;40599;53.132;6.090;2023-08-21T10:22:48;8.43;;;2.27;;
54699;SDS011;40599;53.132;6.090;2023-08-21T10:27:42;8.20;;;2.07;;
54699;SDS011;40599;53.132;6.090;2023-08-21T10:30:41;7.20;;;2.10;;
54699;SDS011;40599;53.132;6.090;2023-08-21T10:33:00;10.37;;;2.30;;
54699;SDS011;40599;53.132;6.090;2023-08-21T10:35:30;12.20;;;2.10;;
54699;SDS011;40599;53.132;6.090;2023-08-21T10:38:12;7.57;;;1.90;;
54699;SDS011;40599;53.132;6.090;2023-08-21T10:40:41;8.67;;;2.13;;
54699;SDS011;40599;53.132;6.090;2023-08-21T10:45:55;10.63;;;2.63;;
54699;SDS011;40599;53.132;6.090;2023-08-21T10:48:21;9.57;;;2.13;;
54699;SDS011;40599;53.132;6.090;2023-08-21T10:53:14;7.27;;;2.60;;
54699;SDS011;40599;53.132;6.090;2023-08-21T10:58:08;7.97;;;2.25;;
54699;SDS011;40599;53.132;6.090;2023-08-21T11:00:36;10.43;;;2.70;;
54699;SDS011;40599;53.132;6.090;2023-08-21T11:05:29;9.57;;;1.60;;
54699;SDS011;40599;53.132;6.090;2023-08-21T11:10:22;6.60;;;1.83;;
54699;SDS011;40599;53.132;6.090;2023-08-21T11:12:55;6.03;;;1.70;;
54699;SDS011;40599;53.132;6.090;2023-08-21T11:15:22;5.03;;;1.70;;
54699;SDS011;40599;53.132;6.090;2023-08-21T11:17:55;8.47;;;2.00;;
54699;SDS011;40599;53.132;6.090;2023-08-21T11:20:22;6.70;;;1.50;;
54699;SDS011;40599;53.132;6.090;2023-08-21T11:22:48;8.93;;;2.43;;
54699;SDS011;40599;53.132;6.090;2023-08-21T11:27:41;8.40;;;1.83;;
54699;SDS011;40599;53.132;6.090;2023-08-21T11:30:10;6.47;;;1.50;;
54699;SDS011;40599;53.132;6.090;2023-08-21T11:32:37;6.27;;;1.63;;
54699;SDS011;40599;53.132;6.090;2023-08-21T11:37:29;4.30;;;1.33;;
54699;SDS011;40599;53.132;6.090;2023-08-21T11:42:25;6.03;;;1.33;;
54699;SDS011;40599;53.132;6.090;2023-08-21T11:44:54;4.47;;;1.63;;
54699;SDS011;40599;53.132;6.090;2023-08-21T11:49:47;4.73;;;1.33;;
54699;SDS011;40599;53.132;6.090;2023-08-21T11:52:17;7.90;;;1.47;;
54699;SDS011;40599;53.132;6.090;2023-08-21T11:54:43;7.37;;;1.37;;
54699;SDS011;40599;53.132;6.090;2023-08-21T11:57:13;5.57;;;2.10;;
54699;SDS011;40599;53.132;6.090;2023-08-21T11:59:40;5.93;;;1.50;;
54699;SDS011;40599;53.132;6.090;2023-08-21T12:02:21;5.90;;;1.70;;
54699;SDS011;40599;53.132;6.090;2023-08-21T12:04:51;4.63;;;1.40;;
54699;SDS011;40599;53.132;6.090;2023-08-21T12:07:18;4.07;;;1.30;;
54699;SDS011;40599;53.132;6.090;2023-08-21T12:12:10;5.03;;;1.50;;
54699;SDS011;40599;53.132;6.090;2023-08-21T12:17:04;5.37;;;1.40;;
54699;SDS011;40599;53.132;6.090;2023-08-21T12:21:56;5.63;;;1.20;;
54699;SDS011;40599;53.132;6.090;2023-08-21T12:24:23;5.97;;;1.70;;
54699;SDS011;40599;53.132;6.090;2023-08-21T12:26:50;7.33;;;1.70;;
54699;SDS011;40599;53.132;6.090;2023-08-21T12:31:42;6.07;;;1.60;;
54699;SDS011;40599;53.132;6.090;2023-08-21T12:36:35;7.97;;;1.67;;
54699;SDS011;40599;53.132;6.090;2023-08-21T12:39:04;5.60;;;1.33;;
54699;SDS011;40599;53.132;6.090;2023-08-21T12:41:31;4.03;;;1.20;;
54699;SDS011;40599;53.132;6.090;2023-08-21T12:44:01;5.03;;;1.70;;
54699;SDS011;40599;53.132;6.090;2023-08-21T12:46:34;3.63;;;1.30;;
54699;SDS011;40599;53.132;6.090;2023-08-21T12:49:00;5.60;;;1.30;;
54699;SDS011;40599;53.132;6.090;2023-08-21T12:51:27;3.93;;;1.27;;
54699;SDS011;40599;53.132;6.090;2023-08-21T12:53:54;4.13;;;1.13;;
54699;SDS011;40599;53.132;6.090;2023-08-21T12:56:20;4.80;;;1.50;;
54699;SDS011;40599;53.132;6.090;2023-08-21T12:58:47;8.13;;;1.40;;
54699;SDS011;40599;53.132;6.090;2023-08-21T13:01:13;3.53;;;1.40;;
54699;SDS011;40599;53.132;6.090;2023-08-21T13:03:43;7.93;;;1.60;;
54699;SDS011;40599;53.132;6.090;2023-08-21T13:06:10;4.90;;;1.13;;
54699;SDS011;40599;53.132;6.090;2023-08-21T13:11:02;5.43;;;1.40;;
54699;SDS011;40599;53.132;6.090;2023-08-21T13:13:30;4.17;;;1.10;;
54699;SDS011;40599;53.132;6.090;2023-08-21T13:18:22;4.33;;;1.70;;
54699;SDS011;40599;53.132;6.090;2023-08-21T13:23:14;5.03;;;1.50;;
54699;SDS011;40599;53.132;6.090;2023-08-21T13:28:44;5.23;;;1.40;;
54699;SDS011;40599;53.132;6.090;2023-08-21T13:31:10;6.90;;;1.57;;
54699;SDS011;40599;53.132;6.090;2023-08-21T13:33:46;5.37;;;1.50;;
54699;SDS011;40599;53.132;6.090;2023-08-21T13:36:12;3.67;;;1.10;;
54699;SDS011;40599;53.132;6.090;2023-08-21T13:38:39;4.07;;;1.10;;
54699;SDS011;40599;53.132;6.090;2023-08-21T13:41:06;5.60;;;1.60;;
54699;SDS011;40599;53.132;6.090;2023-08-21T13:43:33;3.17;;;1.33;;
54699;SDS011;40599;53.132;6.090;2023-08-21T13:46:00;5.93;;;1.73;;
54699;SDS011;40599;53.132;6.090;2023-08-21T13:48:26;4.07;;;1.37;;
54699;SDS011;40599;53.132;6.090;2023-08-21T13:50:52;4.93;;;1.30;;
54699;SDS011;40599;53.132;6.090;2023-08-21T13:53:18;8.67;;;1.80;;
54699;SDS011;40599;53.132;6.090;2023-08-21T13:58:11;5.53;;;1.57;;
54699;SDS011;40599;53.132;6.090;2023-08-21T14:00:37;6.60;;;2.10;;
54699;SDS011;40599;53.132;6.090;2023-08-21T14:03:03;8.40;;;2.00;;
54699;SDS011;40599;53.132;6.090;2023-08-21T14:05:29;8.47;;;2.30;;
54699;SDS011;40599;53.132;6.090;2023-08-21T14:07:56;10.43;;;3.93;;
54699;SDS011;40599;53.132;6.090;2023-08-21T14:10:23;9.10;;;2.73;;
54699;SDS011;40599;53.132;6.090;2023-08-21T14:12:50;9.27;;;3.13;;
54699;SDS011;40599;53.132;6.090;2023-08-21T14:15:17;14.83;;;3.90;;
54699;SDS011;40599;53.132;6.090;2023-08-21T14:17:46;8.97;;;2.73;;
54699;SDS011;40599;53.132;6.090;2023-08-21T14:20:14;7.77;;;2.63;;
54699;SDS011;40599;53.132;6.090;2023-08-21T14:25:06;8.43;;;3.33;;
54699;SDS011;40599;53.132;6.090;2023-08-21T14:27:33;8.83;;;2.93;;
54699;SDS011;40599;53.132;6.090;2023-08-21T14:29:59;9.83;;;2.50;;
54699;SDS011;40599;53.132;6.090;2023-08-21T14:32:25;8.33;;;2.30;;
54699;SDS011;40599;53.132;6.090;2023-08-21T14:34:52;7.40;;;2.20;;
54699;SDS011;40599;53.132;6.090;2023-08-21T14:37:20;7.77;;;2.73;;
54699;SDS011;40599;53.132;6.090;2023-08-21T14:39:49;8.47;;;2.23;;
54699;SDS011;40599;53.132;6.090;2023-08-21T14:42:15;7.80;;;2.20;;
54699;SDS011;40599;53.132;6.090;2023-08-21T14:44:41;5.87;;;2.03;;
54699;SDS011;40599;53.132;6.090;2023-08-21T14:47:07;9.13;;;2.13;;
54699;SDS011;40599;53.132;6.090;2023-08-21T14:52:00;10.52;;;2.85;;
54699;SDS011;40599;53.132;6.090;2023-08-21T14:56:52;6.70;;;2.00;;
54699;SDS011;40599;53.132;6.090;2023-08-21T14:59:19;5.80;;;2.20;;
54699;SDS011;40599;53.132;6.090;2023-08-21T15:01:45;6.30;;;1.80;;
54699;SDS011;40599;53.132;6.090;2023-08-21T15:06:38;5.72;;;2.10;;
54699;SDS011;40599;53.132;6.090;2023-08-21T15:09:05;12.00;;;2.10;;
54699;SDS011;40599;53.132;6.090;2023-08-21T15:11:31;4.83;;;2.10;;
54699;SDS011;40599;53.132;6.090;2023-08-21T15:14:00;6.97;;;1.80;;
54699;SDS011;40599;53.132;6.090;2023-08-21T15:16:26;8.87;;;2.10;;
54699;SDS011;40599;53.132;6.090;2023-08-21T15:21:19;5.80;;;1.57;;
54699;SDS011;40599;53.132;6.090;2023-08-21T15:23:46;6.30;;;1.90;;
54699;SDS011;40599;53.132;6.090;2023-08-21T15:26:12;8.90;;;2.40;;
54699;SDS011;40599;53.132;6.090;2023-08-21T15:28:38;5.87;;;1.67;;
54699;SDS011;40599;53.132;6.090;2023-08-21T15:31:04;6.00;;;2.00;;
54699;SDS011;40599;53.132;6.090;2023-08-21T15:33:32;5.70;;;1.67;;
54699;SDS011;40599;53.132;6.090;2023-08-21T15:35:58;5.57;;;1.67;;
54699;SDS011;40599;53.132;6.090;2023-08-21T15:40:50;7.37;;;1.70;;
54699;SDS011;40599;53.132;6.090;2023-08-21T15:45:43;6.20;;;1.70;;
54699;SDS011;40599;53.132;6.090;2023-08-21T15:50:35;6.73;;;1.77;;
54699;SDS011;40599;53.132;6.090;2023-08-21T15:55:27;8.67;;;1.90;;
54699;SDS011;40599;53.132;6.090;2023-08-21T15:57:54;5.43;;;1.90;;
54699;SDS011;40599;53.132;6.090;2023-08-21T16:00:21;6.03;;;1.97;;
54699;SDS011;40599;53.132;6.090;2023-08-21T16:02:47;7.20;;;2.30;;
54699;SDS011;40599;53.132;6.090;2023-08-21T16:05:14;6.33;;;1.80;;
54699;SDS011;40599;53.132;6.090;2023-08-21T16:10:06;6.90;;;1.47;;
54699;SDS011;40599;53.132;6.090;2023-08-21T16:12:33;5.53;;;1.77;;
54699;SDS011;40599;53.132;6.090;2023-08-21T16:17:25;9.03;;;1.80;;
54699;SDS011;40599;53.132;6.090;2023-08-21T16:22:19;4.97;;;1.20;;
54699;SDS011;40599;53.132;6.090;2023-08-21T16:24:46;7.97;;;1.83;;
54699;SDS011;40599;53.132;6.090;2023-08-21T16:29:38;7.63;;;1.80;;
54699;SDS011;40599;53.132;6.090;2023-08-21T16:34:30;6.23;;;2.03;;
54699;SDS011;40599;53.132;6.090;2023-08-21T16:39:22;6.37;;;2.37;;
54699;SDS011;40599;53.132;6.090;2023-08-21T16:44:15;6.77;;;1.87;;
54699;SDS011;40599;53.132;6.090;2023-08-21T16:46:46;9.57;;;2.80;;
54699;SDS011;40599;53.132;6.090;2023-08-21T16:49:12;11.60;;;2.83;;
54699;SDS011;40599;53.132;6.090;2023-08-21T16:51:39;6.63;;;2.27;;
54699;SDS011;40599;53.132;6.090;2023-08-21T16:56:31;8.77;;;2.57;;
54699;SDS011;40599;53.132;6.090;2023-08-21T16:58:57;9.27;;;2.20;;
54699;SDS011;40599;53.132;6.090;2023-08-21T17:01:24;8.90;;;1.90;;
54699;SDS011;40599;53.132;6.090;2023-08-21T17:03:50;5.93;;;1.70;;
54699;SDS011;40599;53.132;6.090;2023-08-21T17:06:16;6.32;;;2.17;;